createdAt,value
2023-06-04T00:01:19.533Z,22.30
2023-06-04T00:04:23.494Z,22.32
2023-06-04T00:07:25.816Z,22.31
2023-06-04T00:10:27.975Z,22.24
2023-06-04T00:13:30.342Z,22.14
2023-06-04T00:16:32.978Z,22.11
2023-06-04T00:19:35.167Z,22.10
2023-06-04T00:22:37.874Z,22.04
2023-06-04T00:25:41.594Z,21.97
2023-06-04T00:28:43.778Z,22.00
2023-06-04T00:31:46.173Z,22.02
2023-06-04T00:34:52.751Z,22.04
2023-06-04T00:37:54.935Z,22.09
2023-06-04T00:40:57.174Z,22.06
2023-06-04T00:44:02.923Z,22.13
2023-06-04T00:47:05.439Z,22.09
2023-06-04T00:50:08.967Z,22.03
2023-06-04T00:53:11.904Z,22.01
2023-06-04T00:56:14.308Z,22.04
2023-06-04T00:59:17.688Z,22.11
2023-06-04T01:02:23.734Z,22.09
2023-06-04T01:05:43.425Z,22.03
2023-06-04T01:08:45.647Z,21.98
2023-06-04T01:11:47.825Z,21.95
2023-06-04T01:14:50.279Z,21.96
2023-06-04T01:17:58.510Z,21.82
2023-06-04T01:21:02.245Z,21.82
2023-06-04T01:24:08.016Z,21.77
2023-06-04T01:27:10.313Z,21.70
2023-06-04T01:30:13.295Z,21.60
2023-06-04T01:33:20.079Z,21.54
2023-06-04T01:36:22.357Z,21.56
2023-06-04T01:39:27.416Z,21.48
2023-06-04T01:42:29.609Z,21.39
2023-06-04T01:45:31.915Z,21.42
2023-06-04T01:48:35.036Z,21.41
2023-06-04T01:51:37.942Z,21.35
2023-06-04T01:54:41.860Z,21.37
2023-06-04T01:57:51.573Z,21.36
2023-06-04T02:01:01.299Z,21.35
2023-06-04T02:04:03.850Z,21.32
2023-06-04T02:07:08.023Z,21.33
2023-06-04T02:10:11.146Z,21.27
2023-06-04T02:13:13.624Z,21.26
2023-06-04T02:16:15.965Z,21.22
2023-06-04T02:19:19.950Z,21.25
2023-06-04T02:22:22.141Z,21.19
2023-06-04T02:25:24.664Z,21.19
2023-06-04T02:28:27.219Z,21.23
2023-06-04T02:31:29.408Z,21.12
2023-06-04T02:34:31.859Z,21.11
2023-06-04T02:37:34.062Z,21.06
2023-06-04T02:40:36.271Z,21.02
2023-06-04T02:43:38.576Z,21.03
2023-06-04T02:46:41.101Z,21.10
2023-06-04T02:49:43.380Z,21.09
2023-06-04T02:52:46.110Z,21.11
2023-06-04T02:55:48.375Z,21.11
2023-06-04T02:58:56.318Z,21.07
2023-06-04T03:01:58.522Z,21.03
2023-06-04T03:05:00.718Z,21.01
2023-06-04T03:08:03.965Z,21.01
2023-06-04T03:11:06.532Z,21.11
2023-06-04T03:14:08.937Z,21.08
2023-06-04T03:17:12.085Z,21.12
2023-06-04T03:20:14.358Z,21.18
2023-06-04T03:23:16.604Z,21.26
2023-06-04T03:26:18.998Z,21.29
2023-06-04T03:29:22.227Z,21.34
2023-06-04T03:32:25.928Z,21.55
2023-06-04T03:35:28.199Z,21.60
2023-06-04T03:38:30.709Z,21.56
2023-06-04T03:41:34.135Z,21.54
2023-06-04T03:44:36.412Z,21.53
2023-06-04T03:47:40.058Z,21.48
2023-06-04T03:50:43.673Z,21.63
2023-06-04T03:53:46.608Z,21.89
2023-06-04T03:56:48.892Z,22.21
2023-06-04T03:59:51.301Z,23.14
2023-06-04T04:02:53.702Z,23.71
2023-06-04T04:06:02.796Z,24.17
2023-06-04T04:09:06.784Z,23.90
2023-06-04T04:12:09.609Z,23.92
2023-06-04T04:15:12.143Z,23.49
2023-06-04T04:18:14.588Z,22.93
2023-06-04T04:21:17.802Z,22.61
2023-06-04T04:24:25.553Z,22.68
2023-06-04T04:27:31.452Z,22.63
2023-06-04T04:30:37.799Z,22.60
2023-06-04T04:33:41.624Z,22.51
2023-06-04T04:36:52.974Z,22.80
2023-06-04T04:39:56.269Z,22.86
2023-06-04T04:43:00.539Z,22.89
2023-06-04T04:46:03.624Z,22.93
2023-06-04T04:49:07.063Z,23.00
2023-06-04T04:52:09.565Z,23.01
2023-06-04T04:55:14.048Z,23.04
2023-06-04T04:58:18.348Z,23.08
2023-06-04T05:01:21.503Z,23.10
2023-06-04T05:04:23.841Z,23.18
2023-06-04T05:07:27.158Z,23.13
2023-06-04T05:10:30.371Z,23.12
2023-06-04T05:13:35.184Z,23.14
2023-06-04T05:16:43.558Z,23.09
2023-06-04T05:19:47.148Z,23.17
2023-06-04T05:22:49.517Z,23.13
2023-06-04T05:25:53.335Z,23.01
2023-06-04T05:28:59.122Z,23.09
2023-06-04T05:32:04.111Z,23.12
2023-06-04T05:35:08.208Z,23.09
2023-06-04T05:38:10.609Z,23.08
2023-06-04T05:41:13.139Z,23.12
2023-06-04T05:44:16.562Z,23.13
2023-06-04T05:47:19.401Z,23.12
2023-06-04T05:50:22.048Z,23.09
2023-06-04T05:53:24.341Z,23.08
2023-06-04T05:56:27.791Z,23.02
2023-06-04T05:59:31.626Z,22.99
2023-06-04T06:02:33.896Z,23.01
2023-06-04T06:05:36.396Z,23.13
2023-06-04T06:08:38.683Z,23.17
2023-06-04T06:11:41.131Z,23.26
2023-06-04T06:14:43.510Z,23.30
2023-06-04T06:17:45.950Z,23.44
2023-06-04T06:20:48.570Z,23.59
2023-06-04T06:23:50.877Z,23.70
2023-06-04T06:26:53.334Z,23.83
2023-06-04T06:29:56.679Z,23.95
2023-06-04T06:32:59.029Z,23.99
2023-06-04T06:36:01.329Z,24.11
2023-06-04T06:39:03.723Z,24.28
2023-06-04T06:42:06.004Z,24.27
2023-06-04T06:45:13.340Z,24.29
2023-06-04T06:48:15.593Z,24.37
2023-06-04T06:51:17.996Z,24.38
2023-06-04T06:54:22.747Z,24.45
2023-06-04T06:57:25.265Z,24.46
2023-06-04T07:00:29.158Z,24.47
2023-06-04T07:03:32.323Z,24.48
2023-06-04T07:06:35.350Z,24.53
2023-06-04T07:09:37.546Z,24.56
2023-06-04T07:12:42.827Z,24.64
2023-06-04T07:15:45.946Z,24.64
2023-06-04T07:18:51.201Z,24.63
2023-06-04T07:21:55.308Z,24.71
2023-06-04T07:24:57.561Z,24.68
2023-06-04T07:27:59.803Z,24.57
2023-06-04T07:31:02.005Z,24.56
2023-06-04T07:34:04.247Z,24.55
2023-06-04T07:37:06.538Z,24.61
2023-06-04T07:40:09.241Z,24.54
2023-06-04T07:43:11.412Z,24.53
2023-06-04T07:46:13.681Z,24.65
2023-06-04T07:49:16.259Z,24.77
2023-06-04T07:52:18.430Z,24.89
2023-06-04T07:55:21.121Z,24.96
2023-06-04T07:58:23.450Z,25.10
2023-06-04T08:01:25.677Z,25.23
2023-06-04T08:04:28.097Z,25.33
2023-06-04T08:07:30.979Z,25.52
2023-06-04T08:10:33.190Z,25.56
2023-06-04T08:13:35.408Z,25.65
2023-06-04T08:16:37.623Z,25.69
2023-06-04T08:19:39.843Z,25.68
2023-06-04T08:22:42.072Z,25.67
2023-06-04T08:25:44.342Z,25.63
2023-06-04T08:28:50.227Z,25.76
2023-06-04T08:31:52.591Z,25.81
2023-06-04T08:34:55.748Z,25.87
2023-06-04T08:37:58.508Z,25.93
2023-06-04T08:41:11.329Z,25.99
2023-06-04T08:44:13.650Z,26.07
2023-06-04T08:47:16.963Z,26.12
2023-06-04T08:50:24.017Z,26.19
2023-06-04T08:53:26.563Z,26.29
2023-06-04T08:56:33.853Z,26.37
2023-06-04T08:59:36.855Z,26.43
2023-06-04T09:02:39.295Z,26.45
2023-06-04T09:05:43.344Z,26.46
2023-06-04T09:08:53.783Z,26.51
2023-06-04T09:12:02.805Z,26.58
2023-06-04T09:15:05.197Z,26.57
2023-06-04T09:18:07.544Z,26.57
2023-06-04T09:21:12.774Z,26.57
2023-06-04T09:24:15.011Z,26.54
2023-06-04T09:27:18.997Z,26.51
2023-06-04T09:30:21.270Z,26.43
2023-06-04T09:33:24.616Z,26.45
2023-06-04T09:36:31.662Z,26.41
2023-06-04T09:39:33.919Z,26.41
2023-06-04T09:42:56.229Z,26.38
2023-06-04T09:46:10.246Z,26.39
2023-06-04T09:49:12.518Z,26.36
2023-06-04T09:52:15.156Z,26.33
2023-06-04T09:55:20.834Z,26.30
2023-06-04T09:58:24.311Z,26.23
2023-06-04T10:01:28.280Z,26.18
2023-06-04T10:04:30.620Z,26.14
2023-06-04T10:07:35.522Z,26.13
2023-06-04T10:10:39.252Z,26.06
2023-06-04T10:13:56.230Z,25.98
2023-06-04T10:16:59.758Z,25.98
2023-06-04T10:20:05.690Z,26.04
2023-06-04T10:23:09.014Z,26.02
2023-06-04T10:26:11.297Z,26.09
2023-06-04T10:29:13.970Z,26.06
2023-06-04T10:32:16.641Z,26.06
2023-06-04T10:35:19.014Z,26.04
2023-06-04T10:38:22.875Z,26.01
2023-06-04T10:41:26.070Z,26.02
2023-06-04T10:44:28.552Z,26.02
2023-06-04T10:47:31.828Z,26.03
2023-06-04T10:50:35.156Z,26.00
2023-06-04T10:53:38.235Z,26.05
2023-06-04T10:56:40.443Z,26.08
2023-06-04T10:59:42.717Z,26.13
2023-06-04T11:02:56.423Z,26.19
2023-06-04T11:05:58.755Z,26.23
2023-06-04T11:09:04.904Z,26.27
2023-06-04T11:12:07.682Z,26.35
2023-06-04T11:15:10.635Z,26.44
2023-06-04T11:18:20.438Z,26.50
2023-06-04T11:21:22.918Z,26.54
2023-06-04T11:24:25.149Z,26.56
2023-06-04T11:27:36.225Z,26.56
2023-06-04T11:30:40.966Z,26.56
2023-06-04T11:33:47.386Z,26.61
2023-06-04T11:36:50.829Z,26.64
2023-06-04T11:39:53.066Z,26.63
2023-06-04T11:42:55.945Z,26.65
2023-06-04T11:45:58.930Z,26.67
2023-06-04T11:49:01.371Z,26.67
2023-06-04T11:52:03.817Z,26.61
2023-06-04T11:55:09.309Z,26.58
2023-06-04T11:58:11.648Z,26.52
2023-06-04T12:01:14.453Z,26.40
2023-06-04T12:04:18.076Z,26.44
2023-06-04T12:07:22.722Z,26.41
2023-06-04T12:10:25.400Z,26.36
2023-06-04T12:13:27.684Z,26.36
2023-06-04T12:16:30.017Z,26.31
2023-06-04T12:19:32.648Z,26.30
2023-06-04T12:22:46.270Z,26.29
2023-06-04T12:25:51.985Z,26.23
2023-06-04T12:29:03.445Z,26.27
2023-06-04T12:32:12.533Z,26.26
2023-06-04T12:35:16.807Z,26.21
2023-06-04T12:38:19.265Z,26.23
2023-06-04T12:41:21.515Z,26.25
2023-06-04T12:44:23.784Z,26.25
2023-06-04T12:47:26.204Z,26.26
2023-06-04T12:50:28.375Z,26.27
2023-06-04T12:53:31.799Z,26.29
2023-06-04T12:56:34.017Z,26.31
2023-06-04T12:59:36.418Z,26.31
2023-06-04T13:02:38.735Z,26.35
2023-06-04T13:05:41.028Z,26.36
2023-06-04T13:08:43.939Z,26.38
2023-06-04T13:11:46.438Z,26.35
2023-06-04T13:14:48.693Z,26.40
2023-06-04T13:17:50.927Z,26.40
2023-06-04T13:20:53.173Z,26.40
2023-06-04T13:23:57.151Z,26.42
2023-06-04T13:26:59.355Z,26.50
2023-06-04T13:30:01.583Z,26.52
2023-06-04T13:33:04.504Z,26.61
2023-06-04T13:36:07.172Z,26.68
2023-06-04T13:39:09.341Z,26.79
2023-06-04T13:42:11.564Z,26.93
2023-06-04T13:45:14.186Z,27.13
2023-06-04T13:48:16.645Z,27.26
2023-06-04T13:51:18.880Z,27.38
2023-06-04T13:54:21.081Z,27.68
2023-06-04T13:57:23.307Z,27.89
2023-06-04T14:00:25.598Z,27.96
2023-06-04T14:03:27.936Z,27.96
2023-06-04T14:06:30.221Z,27.88
2023-06-04T14:09:32.369Z,27.81
2023-06-04T14:12:34.558Z,27.74
2023-06-04T14:15:37.073Z,27.67
2023-06-04T14:18:39.264Z,27.62
2023-06-04T14:21:42.037Z,27.55
2023-06-04T14:24:44.378Z,27.47
2023-06-04T14:27:46.580Z,27.34
2023-06-04T14:30:48.923Z,27.33
2023-06-04T14:33:51.133Z,27.26
2023-06-04T14:36:53.366Z,27.18
2023-06-04T14:39:55.801Z,27.11
2023-06-04T14:42:58.613Z,26.99
2023-06-04T14:46:00.883Z,26.93
2023-06-04T14:49:03.289Z,26.92
2023-06-04T14:52:05.564Z,26.87
2023-06-04T14:55:08.068Z,26.81
2023-06-04T14:58:10.285Z,26.80
2023-06-04T15:01:12.589Z,26.70
2023-06-04T15:04:15.365Z,26.70
2023-06-04T15:07:17.605Z,26.65
2023-06-04T15:10:19.873Z,26.66
2023-06-04T15:13:22.077Z,26.58
2023-06-04T15:16:24.380Z,26.56
2023-06-04T15:19:26.666Z,26.54
2023-06-04T15:22:28.952Z,26.47
2023-06-04T15:25:31.239Z,26.47
2023-06-04T15:28:33.456Z,26.45
2023-06-04T15:31:35.800Z,26.36
2023-06-04T15:34:38.066Z,26.30
2023-06-04T15:37:40.377Z,26.27
2023-06-04T15:40:42.557Z,26.26
2023-06-04T15:43:44.813Z,26.25
2023-06-04T15:46:47.021Z,26.20
2023-06-04T15:49:49.229Z,26.15
2023-06-04T15:52:51.410Z,26.14
2023-06-04T15:55:53.582Z,26.09
2023-06-04T15:58:55.802Z,26.01
2023-06-04T16:01:58.120Z,25.97
2023-06-04T16:05:00.515Z,25.98
2023-06-04T16:08:02.752Z,25.91
2023-06-04T16:11:05.121Z,25.96
2023-06-04T16:14:07.389Z,25.97
2023-06-04T16:17:09.626Z,25.94
2023-06-04T16:20:11.950Z,25.91
2023-06-04T16:23:14.396Z,25.92
2023-06-04T16:26:16.621Z,25.87
2023-06-04T16:29:18.835Z,25.89
2023-06-04T16:32:21.204Z,25.87
2023-06-04T16:35:23.669Z,25.88
2023-06-04T16:38:25.880Z,25.81
2023-06-04T16:41:28.134Z,25.80
2023-06-04T16:44:30.379Z,25.78
2023-06-04T16:47:33.642Z,25.72
2023-06-04T16:50:35.975Z,25.70
2023-06-04T16:53:38.165Z,25.64
2023-06-04T16:56:41.875Z,25.61
2023-06-04T16:59:47.580Z,25.62
2023-06-04T17:02:49.770Z,25.50
2023-06-04T17:05:52.046Z,25.55
2023-06-04T17:08:54.334Z,25.50
2023-06-04T17:11:56.626Z,25.51
2023-06-04T17:14:58.920Z,25.49
2023-06-04T17:18:01.976Z,25.48
2023-06-04T17:21:04.406Z,25.46
2023-06-04T17:24:06.815Z,25.48
2023-06-04T17:27:09.357Z,25.41
2023-06-04T17:30:12.011Z,25.43
2023-06-04T17:33:14.305Z,25.44
2023-06-04T17:36:16.477Z,25.39
2023-06-04T17:39:18.645Z,25.33
2023-06-04T17:42:20.824Z,25.33
2023-06-04T17:45:23.075Z,25.27
2023-06-04T17:48:25.408Z,25.17
2023-06-04T17:51:27.564Z,25.16
2023-06-04T17:54:29.756Z,25.13
2023-06-04T17:57:31.958Z,25.10
2023-06-04T18:00:34.530Z,25.10
2023-06-04T18:03:39.284Z,25.08
2023-06-04T18:06:41.452Z,25.04
2023-06-04T18:09:44.124Z,25.00
2023-06-04T18:12:46.704Z,24.98
2023-06-04T18:15:49.443Z,24.93
2023-06-04T18:18:51.626Z,24.92
2023-06-04T18:21:54.093Z,24.94
2023-06-04T18:24:56.308Z,24.93
2023-06-04T18:27:58.492Z,24.87
2023-06-04T18:31:00.947Z,24.80
2023-06-04T18:34:03.442Z,24.78
2023-06-04T18:37:05.995Z,24.75
2023-06-04T18:40:13.516Z,24.79
2023-06-04T18:43:16.343Z,24.72
2023-06-04T18:46:19.257Z,24.74
2023-06-04T18:49:22.974Z,24.70
2023-06-04T18:52:25.622Z,24.69
2023-06-04T18:55:27.799Z,24.68
2023-06-04T18:58:30.024Z,24.60
2023-06-04T19:01:32.260Z,24.57
2023-06-04T19:04:37.390Z,24.59
2023-06-04T19:07:40.852Z,24.57
2023-06-04T19:10:46.461Z,24.51
2023-06-04T19:13:48.822Z,24.49
2023-06-04T19:16:51.938Z,24.47
2023-06-04T19:19:54.555Z,24.44
2023-06-04T19:22:56.734Z,24.38
2023-06-04T19:25:58.902Z,24.34
2023-06-04T19:29:01.389Z,24.29
2023-06-04T19:32:03.733Z,24.30
2023-06-04T19:35:06.810Z,24.31
2023-06-04T19:38:09.071Z,24.31
2023-06-04T19:41:11.265Z,24.27
2023-06-04T19:44:13.481Z,24.23
2023-06-04T19:47:15.784Z,24.23
2023-06-04T19:50:18.525Z,24.20
2023-06-04T19:53:20.699Z,24.15
2023-06-04T19:56:22.901Z,24.15
2023-06-04T19:59:25.054Z,24.15
2023-06-04T20:02:27.251Z,24.18
2023-06-04T20:05:30.038Z,24.15
2023-06-04T20:08:32.758Z,24.14
2023-06-04T20:11:35.975Z,24.14
2023-06-04T20:14:38.257Z,24.11
2023-06-04T20:17:40.499Z,24.09
2023-06-04T20:20:42.784Z,24.10
2023-06-04T20:23:46.723Z,24.13
2023-06-04T20:26:49.124Z,24.06
2023-06-04T20:29:51.814Z,24.13
2023-06-04T20:32:56.743Z,24.10
2023-06-04T20:35:59.262Z,24.10
2023-06-04T20:39:01.601Z,24.07
2023-06-04T20:42:03.944Z,24.03
2023-06-04T20:45:06.803Z,24.05
2023-06-04T20:48:09.089Z,24.04
2023-06-04T20:51:11.450Z,24.02
2023-06-04T20:54:14.195Z,23.99
2023-06-04T20:57:16.402Z,24.00
2023-06-04T21:00:18.728Z,23.98
2023-06-04T21:03:21.511Z,23.92
2023-06-04T21:06:23.799Z,23.92
2023-06-04T21:09:26.084Z,23.93
2023-06-04T21:12:28.258Z,23.99
2023-06-04T21:15:30.479Z,23.98
2023-06-04T21:18:32.692Z,23.96
2023-06-04T21:21:34.874Z,23.93
2023-06-04T21:24:37.111Z,23.83
2023-06-04T21:27:39.507Z,23.80
2023-06-04T21:30:41.974Z,23.81
2023-06-04T21:33:44.205Z,23.83
2023-06-04T21:36:46.405Z,23.85
2023-06-04T21:39:48.572Z,23.84
2023-06-04T21:42:51.458Z,23.78
2023-06-04T21:45:54.294Z,23.78
2023-06-04T21:48:56.481Z,23.78
2023-06-04T21:51:58.631Z,23.71
2023-06-04T21:55:00.866Z,23.73
2023-06-04T21:58:04.550Z,23.73
2023-06-04T22:01:07.078Z,23.71
2023-06-04T22:04:09.724Z,23.70
2023-06-04T22:07:11.962Z,23.67
2023-06-04T22:10:14.232Z,23.66
2023-06-04T22:13:16.598Z,23.69
2023-06-04T22:16:18.978Z,23.66
2023-06-04T22:19:21.253Z,23.64
2023-06-04T22:22:23.489Z,23.62
2023-06-04T22:25:25.909Z,23.58
2023-06-04T22:28:28.150Z,23.59
2023-06-04T22:31:30.708Z,23.58
2023-06-04T22:34:33.061Z,23.53
2023-06-04T22:37:35.473Z,23.53
2023-06-04T22:40:37.973Z,23.50
2023-06-04T22:43:40.148Z,23.47
2023-06-04T22:46:42.467Z,23.47
2023-06-04T22:49:44.710Z,23.43
2023-06-04T22:52:46.967Z,23.45
2023-06-04T22:55:49.286Z,23.45
2023-06-04T22:58:51.651Z,23.37
2023-06-04T23:01:54.794Z,23.33
2023-06-04T23:04:57.156Z,23.36
2023-06-04T23:07:59.333Z,23.40
2023-06-04T23:11:01.605Z,23.38
2023-06-04T23:14:03.861Z,23.31
2023-06-04T23:17:06.067Z,23.30
2023-06-04T23:20:10.094Z,23.29
2023-06-04T23:23:12.299Z,23.28
2023-06-04T23:26:14.477Z,23.27
2023-06-04T23:29:16.677Z,23.29
2023-06-04T23:32:19.080Z,23.29
2023-06-04T23:35:21.588Z,23.30
2023-06-04T23:38:23.938Z,23.24
2023-06-04T23:41:26.661Z,23.26
2023-06-04T23:44:29.129Z,23.25
2023-06-04T23:47:31.482Z,23.21
2023-06-04T23:50:33.771Z,23.17
2023-06-04T23:53:36.404Z,23.17
2023-06-04T23:56:41.331Z,23.16
2023-06-04T23:59:44.253Z,23.07
